createdAt,value
2018-09-06T00:01:07.712Z,3.83
2018-09-06T00:03:36.133Z,3.87
2018-09-06T00:06:04.502Z,3.80
2018-09-06T00:08:32.864Z,3.57
2018-09-06T00:11:01.147Z,3.70
2018-09-06T00:13:29.688Z,3.63
2018-09-06T00:15:58.086Z,3.10
2018-09-06T00:18:26.373Z,4.20
2018-09-06T00:20:54.738Z,3.87
2018-09-06T00:23:23.075Z,4.17
2018-09-06T00:25:51.355Z,3.57
2018-09-06T00:28:20.437Z,3.77
2018-09-06T00:30:48.875Z,3.50
2018-09-06T00:33:18.237Z,3.83
2018-09-06T00:35:46.619Z,4.50
2018-09-06T00:38:14.923Z,5.07
2018-09-06T00:40:43.296Z,4.13
2018-09-06T00:43:11.616Z,4.40
2018-09-06T00:45:40.059Z,4.73
2018-09-06T00:48:08.518Z,4.93
2018-09-06T00:50:38.845Z,4.00
2018-09-06T00:53:07.265Z,4.23
2018-09-06T00:55:35.760Z,3.80
2018-09-06T00:58:04.107Z,4.03
2018-09-06T01:00:32.523Z,3.37
2018-09-06T01:03:00.925Z,3.73
2018-09-06T01:05:29.772Z,3.43
2018-09-06T01:07:58.873Z,3.70
2018-09-06T01:10:27.542Z,3.63
2018-09-06T01:12:55.932Z,3.10
2018-09-06T01:15:24.251Z,3.60
2018-09-06T01:17:52.594Z,3.47
2018-09-06T01:20:20.923Z,3.37
2018-09-06T01:22:49.755Z,3.90
2018-09-06T01:25:18.194Z,4.90
2018-09-06T01:27:46.527Z,3.13
2018-09-06T01:30:14.853Z,3.37
2018-09-06T01:32:43.257Z,4.13
2018-09-06T01:35:11.554Z,3.30
2018-09-06T01:37:39.826Z,3.53
2018-09-06T01:40:08.288Z,3.00
2018-09-06T01:42:36.589Z,4.77
2018-09-06T01:45:04.902Z,3.67
2018-09-06T01:47:33.507Z,3.43
2018-09-06T01:50:01.833Z,3.33
2018-09-06T01:52:30.358Z,3.57
2018-09-06T01:54:58.849Z,3.70
2018-09-06T01:57:27.160Z,4.00
2018-09-06T01:59:55.494Z,3.77
2018-09-06T02:02:23.863Z,4.10
2018-09-06T02:04:52.184Z,3.77
2018-09-06T02:07:20.560Z,3.67
2018-09-06T02:09:49.152Z,3.63
2018-09-06T02:12:17.534Z,3.80
2018-09-06T02:14:45.851Z,3.57
2018-09-06T02:17:14.191Z,4.20
2018-09-06T02:19:42.623Z,4.27
2018-09-06T02:22:10.951Z,4.47
2018-09-06T02:24:39.536Z,3.87
2018-09-06T02:27:08.534Z,3.60
2018-09-06T02:29:36.881Z,3.17
2018-09-06T02:32:05.334Z,3.47
2018-09-06T02:34:33.707Z,4.30
2018-09-06T02:37:02.050Z,3.93
2018-09-06T02:39:30.396Z,2.93
2018-09-06T02:41:58.706Z,4.03
2018-09-06T02:44:27.014Z,4.00
2018-09-06T02:46:55.347Z,3.33
2018-09-06T02:49:29.291Z,3.67
2018-09-06T02:51:57.628Z,4.10
2018-09-06T02:54:25.936Z,4.20
2018-09-06T02:56:54.229Z,3.53
2018-09-06T02:59:22.535Z,3.80
2018-09-06T03:01:50.838Z,3.47
2018-09-06T03:04:19.174Z,4.07
2018-09-06T03:06:47.515Z,4.13
2018-09-06T03:09:15.831Z,3.93
2018-09-06T03:11:49.397Z,3.50
2018-09-06T03:14:17.706Z,3.93
2018-09-06T03:16:46.147Z,4.20
2018-09-06T03:19:14.496Z,4.00
2018-09-06T03:21:42.846Z,4.07
2018-09-06T03:24:11.163Z,4.60
2018-09-06T03:26:39.494Z,3.73
2018-09-06T03:29:07.832Z,4.60
2018-09-06T03:31:36.286Z,4.43
2018-09-06T03:34:04.633Z,4.13
2018-09-06T03:36:34.374Z,3.93
2018-09-06T03:39:04.855Z,3.97
2018-09-06T03:41:33.633Z,3.67
2018-09-06T03:44:01.999Z,4.70
2018-09-06T03:46:30.352Z,4.20
2018-09-06T03:48:58.684Z,4.50
2018-09-06T03:51:27.015Z,4.40
2018-09-06T03:53:55.361Z,4.40
2018-09-06T03:56:23.715Z,3.77
2018-09-06T03:58:52.084Z,3.90
2018-09-06T04:01:20.436Z,3.80
2018-09-06T04:03:48.786Z,4.10
2018-09-06T04:06:17.154Z,4.00
2018-09-06T04:08:45.480Z,4.70
2018-09-06T04:11:13.826Z,4.30
2018-09-06T04:13:42.373Z,4.90
2018-09-06T04:16:10.672Z,3.40
2018-09-06T04:18:39.049Z,3.93
2018-09-06T04:21:07.595Z,4.57
2018-09-06T04:23:35.923Z,4.83
2018-09-06T04:26:04.405Z,4.37
2018-09-06T04:28:32.847Z,5.53
2018-09-06T04:31:01.186Z,4.30
2018-09-06T04:33:29.499Z,4.37
2018-09-06T04:35:57.878Z,4.07
2018-09-06T04:38:26.218Z,4.30
2018-09-06T04:40:54.578Z,4.47
2018-09-06T04:43:22.910Z,4.70
2018-09-06T04:45:51.254Z,5.17
2018-09-06T04:48:19.564Z,4.47
2018-09-06T04:50:47.882Z,4.50
2018-09-06T04:53:16.384Z,4.20
2018-09-06T04:55:44.703Z,4.07
2018-09-06T04:58:13.027Z,4.60
2018-09-06T05:00:41.364Z,4.83
2018-09-06T05:03:09.711Z,4.33
2018-09-06T05:05:38.042Z,4.97
2018-09-06T05:08:06.482Z,4.57
2018-09-06T05:10:34.840Z,5.13
2018-09-06T05:13:03.155Z,5.00
2018-09-06T05:15:31.487Z,5.10
2018-09-06T05:17:59.839Z,4.77
2018-09-06T05:20:28.182Z,5.13
2018-09-06T05:22:56.501Z,4.47
2018-09-06T05:25:24.810Z,4.97
2018-09-06T05:27:53.156Z,4.87
2018-09-06T05:30:21.518Z,5.43
2018-09-06T05:32:49.832Z,4.83
2018-09-06T05:35:18.279Z,5.30
2018-09-06T05:37:46.442Z,4.67
2018-09-06T05:40:14.773Z,5.13
2018-09-06T05:42:43.080Z,4.63
2018-09-06T05:45:11.414Z,4.63
2018-09-06T05:47:39.763Z,4.43
2018-09-06T05:50:14.914Z,5.27
2018-09-06T05:52:43.225Z,4.50
2018-09-06T05:55:11.565Z,5.30
2018-09-06T05:57:39.906Z,4.90
2018-09-06T06:01:13.674Z,4.93
2018-09-06T06:03:41.979Z,5.20
2018-09-06T06:06:10.320Z,5.00
2018-09-06T06:08:39.866Z,4.63
2018-09-06T06:11:08.283Z,6.13
2018-09-06T06:13:36.594Z,5.20
2018-09-06T06:16:04.925Z,5.23
2018-09-06T06:18:33.315Z,5.60
2018-09-06T06:21:01.659Z,5.80
2018-09-06T06:23:30.202Z,5.23
2018-09-06T06:25:58.581Z,5.67
2018-09-06T06:28:26.957Z,5.40
2018-09-06T06:30:55.268Z,5.60
2018-09-06T06:33:23.657Z,5.90
2018-09-06T06:35:51.943Z,6.37
2018-09-06T06:38:20.248Z,6.20
2018-09-06T06:40:48.538Z,5.47
2018-09-06T06:43:16.876Z,5.47
2018-09-06T06:45:45.171Z,10.50
2018-09-06T06:48:13.498Z,5.73
2018-09-06T06:50:41.828Z,6.27
2018-09-06T06:53:10.107Z,5.17
2018-09-06T06:55:38.432Z,5.33
2018-09-06T06:58:06.719Z,5.47
2018-09-06T07:00:41.283Z,5.17
2018-09-06T07:03:10.588Z,5.37
2018-09-06T07:05:39.360Z,6.00
2018-09-06T07:08:08.249Z,5.73
2018-09-06T07:10:36.708Z,5.73
2018-09-06T07:13:05.049Z,5.53
2018-09-06T07:15:33.387Z,5.43
2018-09-06T07:18:01.793Z,5.60
2018-09-06T07:20:30.285Z,5.10
2018-09-06T07:22:58.635Z,5.20
2018-09-06T07:25:27.236Z,5.37
2018-09-06T07:27:55.805Z,5.90
2018-09-06T07:30:24.104Z,5.63
2018-09-06T07:32:52.423Z,5.83
2018-09-06T07:35:20.815Z,6.13
2018-09-06T07:37:49.107Z,5.20
2018-09-06T07:40:17.372Z,5.33
2018-09-06T07:42:45.725Z,5.57
2018-09-06T07:45:14.029Z,4.77
2018-09-06T07:47:42.366Z,6.00
2018-09-06T07:50:10.766Z,5.47
2018-09-06T07:52:39.116Z,5.90
2018-09-06T07:55:07.452Z,4.90
2018-09-06T07:57:35.745Z,5.77
2018-09-06T08:00:04.196Z,5.57
2018-09-06T08:02:32.483Z,5.07
2018-09-06T08:05:00.798Z,5.30
2018-09-06T08:07:29.102Z,4.83
2018-09-06T08:09:57.382Z,5.37
2018-09-06T08:12:25.683Z,6.07
2018-09-06T08:14:53.966Z,5.80
2018-09-06T08:17:22.275Z,5.00
2018-09-06T08:19:50.536Z,5.63
2018-09-06T08:22:18.802Z,5.03
2018-09-06T08:24:47.124Z,4.77
2018-09-06T08:27:15.395Z,5.37
2018-09-06T08:29:43.716Z,5.87
2018-09-06T08:32:12.036Z,5.30
2018-09-06T08:34:40.312Z,4.87
2018-09-06T08:37:08.629Z,5.10
2018-09-06T08:39:36.899Z,5.07
2018-09-06T08:42:05.186Z,4.63
2018-09-06T08:44:33.484Z,4.33
2018-09-06T08:47:01.732Z,4.43
2018-09-06T08:49:29.996Z,5.57
2018-09-06T08:51:58.273Z,4.40
2018-09-06T08:54:26.583Z,4.40
2018-09-06T08:56:54.884Z,4.90
2018-09-06T08:59:23.159Z,5.07
2018-09-06T09:01:51.463Z,4.20
2018-09-06T09:04:19.787Z,4.30
2018-09-06T09:06:48.068Z,4.27
2018-09-06T09:09:16.575Z,5.17
2018-09-06T09:11:44.835Z,4.17
2018-09-06T09:14:13.126Z,4.70
2018-09-06T09:16:41.441Z,4.77
2018-09-06T09:19:09.794Z,5.20
2018-09-06T09:21:38.250Z,4.40
2018-09-06T09:24:07.033Z,4.57
2018-09-06T09:26:35.994Z,4.70
2018-09-06T09:29:04.332Z,5.03
2018-09-06T09:31:32.619Z,4.77
2018-09-06T09:34:00.899Z,4.20
2018-09-06T09:36:29.195Z,4.93
2018-09-06T09:38:57.534Z,6.77
2018-09-06T09:41:25.835Z,5.10
2018-09-06T09:43:54.235Z,5.27
2018-09-06T09:48:50.120Z,4.93
2018-09-06T09:51:18.442Z,5.60
2018-09-06T09:53:46.729Z,4.63
2018-09-06T09:56:14.993Z,4.70
2018-09-06T09:58:43.347Z,4.50
2018-09-06T10:01:11.628Z,3.93
2018-09-06T10:03:45.615Z,4.17
2018-09-06T10:06:19.358Z,4.07
2018-09-06T10:08:52.927Z,3.90
2018-09-06T10:11:21.266Z,5.07
2018-09-06T10:13:49.574Z,4.77
2018-09-06T10:16:18.044Z,4.80
2018-09-06T10:18:46.342Z,4.10
2018-09-06T10:21:14.653Z,4.40
2018-09-06T10:23:42.981Z,4.73
2018-09-06T10:26:11.304Z,4.57
2018-09-06T10:28:39.615Z,3.93
2018-09-06T10:31:07.918Z,4.20
2018-09-06T10:33:36.225Z,3.97
2018-09-06T10:36:04.562Z,4.43
2018-09-06T10:38:32.871Z,3.83
2018-09-06T10:41:01.199Z,3.80
2018-09-06T10:43:29.539Z,4.47
2018-09-06T10:45:57.838Z,4.40
2018-09-06T10:48:26.151Z,4.30
2018-09-06T10:50:54.453Z,3.93
2018-09-06T10:53:22.763Z,4.40
2018-09-06T10:55:51.072Z,3.57
2018-09-06T10:58:19.414Z,3.73
2018-09-06T11:00:47.715Z,4.60
2018-09-06T11:03:16.088Z,3.67
2018-09-06T11:05:44.384Z,3.93
2018-09-06T11:08:12.688Z,4.03
2018-09-06T11:10:41.076Z,4.53
2018-09-06T11:13:09.354Z,4.00
2018-09-06T11:15:37.632Z,3.83
2018-09-06T11:18:06.020Z,4.40
2018-09-06T11:20:34.250Z,4.47
2018-09-06T11:23:02.527Z,3.87
2018-09-06T11:25:30.816Z,4.27
2018-09-06T11:27:59.207Z,4.17
2018-09-06T11:30:27.412Z,3.83
2018-09-06T11:32:55.692Z,4.07
2018-09-06T11:35:23.976Z,3.60
2018-09-06T11:37:52.313Z,4.23
2018-09-06T11:40:20.666Z,4.27
2018-09-06T11:42:48.987Z,4.20
2018-09-06T11:45:17.298Z,3.67
2018-09-06T11:47:45.706Z,3.83
2018-09-06T11:50:13.880Z,4.33
2018-09-06T11:52:42.190Z,3.63
2018-09-06T11:55:10.564Z,3.77
2018-09-06T11:57:38.852Z,4.20
2018-09-06T12:00:07.129Z,3.70
2018-09-06T12:02:35.423Z,3.57
2018-09-06T12:05:03.733Z,3.97
2018-09-06T12:07:32.047Z,3.73
2018-09-06T12:10:00.368Z,4.03
2018-09-06T12:12:28.656Z,4.07
2018-09-06T12:14:56.938Z,4.17
2018-09-06T12:17:25.312Z,3.90
2018-09-06T12:19:55.677Z,3.73
2018-09-06T12:22:24.564Z,3.53
2018-09-06T12:24:52.907Z,4.17
2018-09-06T12:27:21.621Z,4.30
2018-09-06T12:29:50.075Z,3.63
2018-09-06T12:32:18.393Z,4.00
2018-09-06T12:34:46.688Z,4.17
2018-09-06T12:37:15.368Z,3.87
2018-09-06T12:39:45.152Z,4.17
2018-09-06T12:42:13.850Z,3.50
2018-09-06T12:44:43.089Z,3.87
2018-09-06T12:47:11.397Z,3.90
2018-09-06T12:49:40.193Z,4.27
2018-09-06T12:52:08.496Z,4.63
2018-09-06T12:54:37.040Z,4.00
2018-09-06T12:57:05.750Z,4.57
2018-09-06T12:59:34.023Z,3.63
2018-09-06T13:02:02.318Z,4.00
2018-09-06T13:04:30.618Z,4.20
2018-09-06T13:06:58.896Z,4.40
2018-09-06T13:09:27.274Z,4.00
2018-09-06T13:11:55.605Z,3.40
2018-09-06T13:14:23.883Z,4.17
2018-09-06T13:16:52.206Z,3.97
2018-09-06T13:19:20.467Z,3.97
2018-09-06T13:21:48.767Z,5.60
2018-09-06T13:24:17.031Z,5.30
2018-09-06T13:26:45.347Z,4.80
2018-09-06T13:29:13.640Z,4.40
2018-09-06T13:31:41.958Z,5.03
2018-09-06T13:34:10.244Z,5.40
2018-09-06T13:36:38.551Z,12.83
2018-09-06T13:39:08.638Z,6.03
2018-09-06T13:41:36.944Z,6.13
2018-09-06T13:44:05.242Z,6.80
2018-09-06T13:46:33.541Z,6.30
2018-09-06T13:49:01.950Z,7.03
2018-09-06T13:51:30.222Z,6.93
2018-09-06T13:53:58.479Z,7.50
2018-09-06T13:56:28.361Z,8.20
2018-09-06T13:58:57.267Z,7.73
2018-09-06T14:01:25.674Z,8.07
2018-09-06T14:03:53.958Z,11.50
2018-09-06T14:06:22.247Z,13.03
2018-09-06T14:08:50.559Z,11.37
2018-09-06T14:11:19.080Z,9.20
2018-09-06T14:13:47.383Z,7.43
2018-09-06T14:16:15.676Z,8.73
2018-09-06T14:18:44.485Z,9.07
2018-09-06T14:21:12.792Z,10.00
2018-09-06T14:23:41.098Z,9.00
2018-09-06T14:26:09.376Z,8.67
2018-09-06T14:28:37.685Z,9.40
2018-09-06T14:31:05.960Z,9.27
2018-09-06T14:33:34.273Z,9.70
2018-09-06T14:36:02.788Z,8.40
2018-09-06T14:38:31.137Z,7.83
2018-09-06T14:40:59.478Z,9.27
2018-09-06T14:43:27.773Z,10.87
2018-09-06T14:45:56.104Z,14.13
2018-09-06T14:48:26.534Z,10.80
2018-09-06T14:50:55.086Z,9.37
2018-09-06T14:53:23.743Z,8.67
2018-09-06T14:55:52.050Z,9.93
2018-09-06T14:58:20.350Z,9.47
2018-09-06T15:00:48.675Z,10.07
2018-09-06T15:03:16.987Z,9.90
2018-09-06T15:05:45.273Z,9.70
2018-09-06T15:08:13.608Z,19.20
2018-09-06T15:10:41.906Z,17.90
2018-09-06T15:13:10.316Z,15.73
2018-09-06T15:15:38.633Z,9.83
2018-09-06T15:18:07.095Z,8.47
2018-09-06T15:20:35.403Z,8.63
2018-09-06T15:23:05.048Z,8.83
2018-09-06T15:25:33.380Z,9.17
2018-09-06T15:28:01.671Z,7.43
2018-09-06T15:30:29.999Z,7.90
2018-09-06T15:32:58.302Z,14.97
2018-09-06T15:35:26.611Z,12.33
2018-09-06T15:37:54.889Z,8.63
2018-09-06T15:40:24.783Z,8.50
2018-09-06T15:42:53.972Z,7.80
2018-09-06T15:45:22.638Z,8.03
2018-09-06T15:47:50.912Z,7.23
2018-09-06T15:50:19.211Z,7.83
2018-09-06T15:52:47.484Z,7.43
2018-09-06T15:55:15.830Z,7.23
2018-09-06T15:57:44.186Z,7.43
2018-09-06T16:00:12.491Z,7.93
2018-09-06T16:02:40.887Z,8.73
2018-09-06T16:05:09.453Z,8.23
2018-09-06T16:07:37.800Z,8.03
2018-09-06T16:10:06.176Z,8.27
2018-09-06T16:12:34.520Z,8.93
2018-09-06T16:15:02.846Z,8.83
2018-09-06T16:17:31.140Z,8.63
2018-09-06T16:19:59.451Z,8.57
2018-09-06T16:22:27.769Z,7.80
2018-09-06T16:24:56.138Z,13.50
2018-09-06T16:27:24.441Z,13.30
2018-09-06T16:29:52.892Z,10.53
2018-09-06T16:32:21.185Z,10.27
2018-09-06T16:34:49.566Z,10.60
2018-09-06T16:37:17.852Z,9.90
2018-09-06T16:39:46.158Z,9.43
2018-09-06T16:42:14.479Z,8.60
2018-09-06T16:44:42.790Z,9.33
2018-09-06T16:47:11.140Z,8.97
2018-09-06T16:49:39.579Z,9.63
2018-09-06T16:52:07.903Z,8.60
2018-09-06T16:54:36.198Z,10.13
2018-09-06T16:57:04.518Z,8.87
2018-09-06T16:59:32.823Z,9.23
2018-09-06T17:02:02.095Z,9.17
2018-09-06T17:04:30.421Z,9.43
2018-09-06T17:06:58.874Z,9.23
2018-09-06T17:09:27.175Z,9.13
2018-09-06T17:11:55.571Z,9.63
2018-09-06T17:14:23.957Z,9.83
2018-09-06T17:16:52.257Z,9.53
2018-09-06T17:19:23.307Z,10.03
2018-09-06T17:21:51.690Z,15.57
2018-09-06T17:24:20.265Z,29.00
2018-09-06T17:26:48.619Z,36.30
2018-09-06T17:29:16.967Z,43.67
2018-09-06T17:31:45.334Z,16.50
2018-09-06T17:34:13.624Z,12.00
2018-09-06T17:36:41.992Z,16.37
2018-09-06T17:39:12.224Z,25.40
2018-09-06T17:41:40.663Z,17.10
2018-09-06T17:44:08.995Z,12.03
2018-09-06T17:46:37.700Z,10.87
2018-09-06T17:49:06.013Z,11.57
2018-09-06T17:51:34.340Z,11.37
2018-09-06T17:54:02.725Z,21.03
2018-09-06T17:56:31.031Z,26.47
2018-09-06T17:58:59.340Z,17.33
2018-09-06T18:01:34.672Z,14.13
2018-09-06T18:04:03.645Z,14.83
2018-09-06T18:06:31.937Z,13.87
2018-09-06T18:09:00.260Z,12.93
2018-09-06T18:11:29.161Z,12.87
2018-09-06T18:13:59.055Z,12.60
2018-09-06T18:16:27.617Z,12.27
2018-09-06T18:18:56.109Z,11.30
2018-09-06T18:21:25.296Z,12.17
2018-09-06T18:23:53.872Z,11.13
2018-09-06T18:26:22.218Z,10.77
2018-09-06T18:28:50.573Z,10.23
2018-09-06T18:31:19.034Z,10.80
2018-09-06T18:33:47.408Z,11.00
2018-09-06T18:36:15.766Z,9.13
2018-09-06T18:38:44.798Z,10.00
2018-09-06T18:41:13.180Z,10.37
2018-09-06T18:43:41.564Z,10.60
2018-09-06T18:46:09.908Z,11.47
2018-09-06T18:48:38.243Z,12.77
2018-09-06T18:51:06.591Z,11.80
2018-09-06T18:53:34.945Z,12.13
2018-09-06T18:56:03.942Z,11.43
2018-09-06T18:58:32.310Z,13.20
2018-09-06T19:01:00.771Z,13.50
2018-09-06T19:03:29.233Z,13.93
2018-09-06T19:05:57.644Z,12.97
2018-09-06T19:08:26.076Z,14.10
2018-09-06T19:10:54.459Z,14.83
2018-09-06T19:13:22.948Z,16.27
2018-09-06T19:15:51.761Z,13.43
2018-09-06T19:18:20.162Z,14.23
2018-09-06T19:20:48.538Z,14.53
2018-09-06T19:23:16.918Z,16.43
2018-09-06T19:25:45.376Z,17.20
2018-09-06T19:28:13.959Z,13.77
2018-09-06T19:30:42.479Z,14.43
2018-09-06T19:33:10.842Z,13.90
2018-09-06T19:35:39.187Z,13.70
2018-09-06T19:38:07.498Z,15.13
2018-09-06T19:40:35.879Z,14.73
2018-09-06T19:43:04.266Z,14.97
2018-09-06T19:45:32.595Z,15.43
2018-09-06T19:48:00.912Z,33.00
2018-09-06T19:50:29.677Z,30.47
2018-09-06T19:52:58.255Z,21.00
2018-09-06T19:55:26.764Z,18.00
2018-09-06T19:57:55.075Z,30.00
2018-09-06T20:00:23.444Z,26.97
2018-09-06T20:02:51.798Z,22.50
2018-09-06T20:05:20.096Z,18.43
2018-09-06T20:07:48.428Z,17.30
2018-09-06T20:10:16.782Z,17.43
2018-09-06T20:12:45.180Z,17.67
2018-09-06T20:15:13.513Z,32.60
2018-09-06T20:17:41.870Z,22.33
2018-09-06T20:20:10.244Z,18.20
2018-09-06T20:22:38.570Z,18.20
2018-09-06T20:25:06.901Z,16.77
2018-09-06T20:27:35.216Z,17.93
2018-09-06T20:30:03.551Z,18.33
2018-09-06T20:32:31.864Z,17.67
2018-09-06T20:35:00.590Z,17.40
2018-09-06T20:37:29.581Z,19.10
2018-09-06T20:39:57.938Z,18.20
2018-09-06T20:42:26.299Z,18.43
2018-09-06T20:44:54.647Z,18.90
2018-09-06T20:47:22.956Z,17.37
2018-09-06T20:49:51.655Z,18.47
2018-09-06T20:52:20.029Z,17.87
2018-09-06T20:54:48.485Z,17.83
2018-09-06T20:57:16.949Z,19.10
2018-09-06T20:59:45.261Z,18.53
2018-09-06T21:02:18.847Z,18.20
2018-09-06T21:04:47.554Z,18.53
2018-09-06T21:07:17.558Z,18.53
2018-09-06T21:09:46.113Z,18.40
2018-09-06T21:12:14.463Z,18.87
2018-09-06T21:14:42.795Z,18.77
2018-09-06T21:17:11.581Z,18.67
2018-09-06T21:19:39.934Z,20.47
2018-09-06T21:22:08.353Z,19.83
2018-09-06T21:24:36.662Z,20.83
2018-09-06T21:27:05.289Z,20.00
2018-09-06T21:29:33.679Z,21.17
2018-09-06T21:32:02.381Z,19.87
2018-09-06T21:34:31.725Z,21.80
2018-09-06T21:37:00.088Z,19.97
2018-09-06T21:39:28.426Z,19.93
2018-09-06T21:41:56.739Z,19.87
2018-09-06T21:44:25.089Z,20.27
2018-09-06T21:46:53.431Z,20.90
2018-09-06T21:49:21.733Z,20.33
2018-09-06T21:51:50.055Z,21.17
2018-09-06T21:54:18.381Z,19.63
2018-09-06T21:56:46.795Z,19.27
2018-09-06T21:59:15.135Z,19.73
2018-09-06T22:01:43.566Z,20.47
2018-09-06T22:04:12.522Z,22.10
2018-09-06T22:06:41.056Z,20.33
2018-09-06T22:09:11.618Z,19.97
2018-09-06T22:11:40.004Z,20.73
2018-09-06T22:14:08.750Z,21.73
2018-09-06T22:16:37.079Z,20.90
2018-09-06T22:19:05.459Z,21.10
2018-09-06T22:21:33.805Z,20.83
2018-09-06T22:24:02.152Z,19.87
2018-09-06T22:26:30.462Z,20.33
2018-09-06T22:28:58.878Z,22.23
2018-09-06T22:31:27.215Z,21.37
2018-09-06T22:33:55.535Z,22.10
2018-09-06T22:36:23.847Z,21.33
2018-09-06T22:38:52.175Z,21.60
2018-09-06T22:41:20.513Z,20.93
2018-09-06T22:43:48.869Z,20.37
2018-09-06T22:46:17.213Z,21.90
2018-09-06T22:48:45.550Z,22.50
2018-09-06T22:51:13.841Z,22.97
2018-09-06T22:53:42.191Z,20.47
2018-09-06T22:56:10.522Z,21.13
2018-09-06T22:58:38.873Z,21.80
2018-09-06T23:01:07.486Z,21.30
2018-09-06T23:03:43.009Z,24.77
2018-09-06T23:06:11.355Z,22.00
2018-09-06T23:08:39.660Z,24.13
2018-09-06T23:11:08.020Z,21.27
2018-09-06T23:13:36.347Z,23.57
2018-09-06T23:16:04.712Z,21.43
2018-09-06T23:18:33.032Z,21.67
2018-09-06T23:21:01.370Z,22.17
2018-09-06T23:23:29.860Z,22.07
2018-09-06T23:25:58.220Z,20.83
2018-09-06T23:28:26.515Z,22.93
2018-09-06T23:30:54.846Z,23.60
2018-09-06T23:33:23.179Z,23.27
2018-09-06T23:35:51.539Z,20.87
2018-09-06T23:38:20.178Z,22.90
2018-09-06T23:40:55.691Z,25.23
2018-09-06T23:43:25.091Z,23.40
2018-09-06T23:45:55.512Z,24.50
2018-09-06T23:48:26.153Z,23.63
2018-09-06T23:50:55.271Z,22.13
2018-09-06T23:53:24.128Z,24.30
2018-09-06T23:55:52.439Z,23.40
2018-09-06T23:58:20.764Z,25.57
